sensor_id;sensor_type;location;lat;lon;timestamp;P1;durP1;ratioP1;P2;durP2;ratioP2
14272;SDS011;7220;49.450;11.052;2023-02-27T00:03:58;2.63;;;1.93;;
14272;SDS011;7220;49.450;11.052;2023-02-27T00:07:59;3.43;;;2.07;;
14272;SDS011;7220;49.450;11.052;2023-02-27T00:11:59;2.80;;;2.10;;
14272;SDS011;7220;49.450;11.052;2023-02-27T00:16:00;2.10;;;1.90;;
14272;SDS011;7220;49.450;11.052;2023-02-27T00:20:01;2.37;;;1.90;;
14272;SDS011;7220;49.450;11.052;2023-02-27T00:24:02;3.07;;;2.27;;
14272;SDS011;7220;49.450;11.052;2023-02-27T00:28:02;3.47;;;2.50;;
14272;SDS011;7220;49.450;11.052;2023-02-27T00:32:03;3.33;;;2.50;;
14272;SDS011;7220;49.450;11.052;2023-02-27T00:36:04;3.60;;;2.20;;
14272;SDS011;7220;49.450;11.052;2023-02-27T00:40:05;2.40;;;1.93;;
14272;SDS011;7220;49.450;11.052;2023-02-27T00:44:06;2.60;;;2.30;;
14272;SDS011;7220;49.450;11.052;2023-02-27T00:48:07;2.67;;;2.37;;
14272;SDS011;7220;49.450;11.052;2023-02-27T00:52:07;2.83;;;2.27;;
14272;SDS011;7220;49.450;11.052;2023-02-27T00:56:08;3.30;;;2.50;;
14272;SDS011;7220;49.450;11.052;2023-02-27T01:00:09;2.43;;;2.20;;
14272;SDS011;7220;49.450;11.052;2023-02-27T01:04:10;5.53;;;2.53;;
14272;SDS011;7220;49.450;11.052;2023-02-27T01:08:10;2.37;;;2.17;;
14272;SDS011;7220;49.450;11.052;2023-02-27T01:12:11;4.40;;;2.23;;
14272;SDS011;7220;49.450;11.052;2023-02-27T01:16:11;2.73;;;2.13;;
14272;SDS011;7220;49.450;11.052;2023-02-27T01:20:12;2.30;;;2.10;;
14272;SDS011;7220;49.450;11.052;2023-02-27T01:24:13;2.77;;;2.10;;
14272;SDS011;7220;49.450;11.052;2023-02-27T01:28:13;2.87;;;2.20;;
14272;SDS011;7220;49.450;11.052;2023-02-27T01:32:14;3.33;;;2.50;;
14272;SDS011;7220;49.450;11.052;2023-02-27T01:36:14;2.40;;;2.03;;
14272;SDS011;7220;49.450;11.052;2023-02-27T01:40:15;2.60;;;2.40;;
14272;SDS011;7220;49.450;11.052;2023-02-27T01:44:15;3.37;;;1.97;;
14272;SDS011;7220;49.450;11.052;2023-02-27T01:52:30;2.43;;;1.93;;
14272;SDS011;7220;49.450;11.052;2023-02-27T01:56:33;2.30;;;2.10;;
14272;SDS011;7220;49.450;11.052;2023-02-27T02:00:33;3.37;;;2.07;;
14272;SDS011;7220;49.450;11.052;2023-02-27T02:04:35;2.90;;;2.00;;
14272;SDS011;7220;49.450;11.052;2023-02-27T02:08:40;2.10;;;1.90;;
14272;SDS011;7220;49.450;11.052;2023-02-27T02:12:43;2.00;;;1.90;;
14272;SDS011;7220;49.450;11.052;2023-02-27T02:25:56;2.10;;;1.90;;
14272;SDS011;7220;49.450;11.052;2023-02-27T02:52:33;4.77;;;2.30;;
14272;SDS011;7220;49.450;11.052;2023-02-27T03:01:30;3.13;;;2.40;;
14272;SDS011;7220;49.450;11.052;2023-02-27T03:05:32;1.97;;;1.87;;
14272;SDS011;7220;49.450;11.052;2023-02-27T03:09:45;3.10;;;2.00;;
14272;SDS011;7220;49.450;11.052;2023-02-27T03:13:52;3.17;;;2.33;;
14272;SDS011;7220;49.450;11.052;2023-02-27T03:18:04;3.70;;;2.10;;
14272;SDS011;7220;49.450;11.052;2023-02-27T03:22:18;3.53;;;2.00;;
14272;SDS011;7220;49.450;11.052;2023-02-27T03:26:23;2.33;;;2.13;;
14272;SDS011;7220;49.450;11.052;2023-02-27T03:30:33;3.73;;;2.00;;
14272;SDS011;7220;49.450;11.052;2023-02-27T03:34:41;4.03;;;2.23;;
14272;SDS011;7220;49.450;11.052;2023-02-27T03:38:45;3.20;;;2.27;;
14272;SDS011;7220;49.450;11.052;2023-02-27T03:42:58;2.50;;;2.30;;
14272;SDS011;7220;49.450;11.052;2023-02-27T03:47:04;3.50;;;2.30;;
14272;SDS011;7220;49.450;11.052;2023-02-27T03:51:04;4.57;;;2.43;;
14272;SDS011;7220;49.450;11.052;2023-02-27T03:55:06;2.40;;;2.20;;
14272;SDS011;7220;49.450;11.052;2023-02-27T03:59:10;5.20;;;2.40;;
14272;SDS011;7220;49.450;11.052;2023-02-27T04:03:11;2.43;;;2.23;;
14272;SDS011;7220;49.450;11.052;2023-02-27T04:11:57;2.53;;;2.33;;
14272;SDS011;7220;49.450;11.052;2023-02-27T04:24:48;5.13;;;2.10;;
14272;SDS011;7220;49.450;11.052;2023-02-27T04:28:58;4.60;;;2.17;;
14272;SDS011;7220;49.450;11.052;2023-02-27T04:33:22;2.50;;;2.17;;
14272;SDS011;7220;49.450;11.052;2023-02-27T04:37:31;4.83;;;2.90;;
14272;SDS011;7220;49.450;11.052;2023-02-27T04:41:55;7.63;;;3.03;;
14272;SDS011;7220;49.450;11.052;2023-02-27T04:46:02;3.50;;;3.07;;
14272;SDS011;7220;49.450;11.052;2023-02-27T04:50:07;5.17;;;2.87;;
14272;SDS011;7220;49.450;11.052;2023-02-27T04:54:13;3.83;;;2.77;;
14272;SDS011;7220;49.450;11.052;2023-02-27T04:58:20;4.40;;;2.60;;
14272;SDS011;7220;49.450;11.052;2023-02-27T05:02:34;3.67;;;2.80;;
14272;SDS011;7220;49.450;11.052;2023-02-27T05:06:38;4.57;;;2.80;;
14272;SDS011;7220;49.450;11.052;2023-02-27T05:10:45;5.80;;;2.70;;
14272;SDS011;7220;49.450;11.052;2023-02-27T05:18:56;4.63;;;2.83;;
14272;SDS011;7220;49.450;11.052;2023-02-27T05:22:58;2.33;;;2.10;;
14272;SDS011;7220;49.450;11.052;2023-02-27T05:27:15;2.60;;;2.40;;
14272;SDS011;7220;49.450;11.052;2023-02-27T05:31:44;4.37;;;2.70;;
14272;SDS011;7220;49.450;11.052;2023-02-27T05:35:50;3.10;;;2.70;;
14272;SDS011;7220;49.450;11.052;2023-02-27T05:39:55;3.57;;;2.90;;
14272;SDS011;7220;49.450;11.052;2023-02-27T05:44:00;5.27;;;2.70;;
14272;SDS011;7220;49.450;11.052;2023-02-27T05:48:07;3.03;;;2.73;;
14272;SDS011;7220;49.450;11.052;2023-02-27T05:52:13;2.60;;;2.40;;
14272;SDS011;7220;49.450;11.052;2023-02-27T05:56:18;5.40;;;2.37;;
14272;SDS011;7220;49.450;11.052;2023-02-27T06:04:40;3.93;;;2.60;;
14272;SDS011;7220;49.450;11.052;2023-02-27T06:08:40;6.37;;;3.60;;
14272;SDS011;7220;49.450;11.052;2023-02-27T06:12:41;3.87;;;3.03;;
14272;SDS011;7220;49.450;11.052;2023-02-27T06:16:42;3.43;;;2.90;;
14272;SDS011;7220;49.450;11.052;2023-02-27T06:20:42;3.93;;;3.13;;
14272;SDS011;7220;49.450;11.052;2023-02-27T06:24:43;4.20;;;3.10;;
14272;SDS011;7220;49.450;11.052;2023-02-27T06:28:44;4.07;;;3.27;;
14272;SDS011;7220;49.450;11.052;2023-02-27T06:32:45;5.30;;;3.00;;
14272;SDS011;7220;49.450;11.052;2023-02-27T06:36:45;3.50;;;3.07;;
14272;SDS011;7220;49.450;11.052;2023-02-27T06:40:45;3.87;;;2.73;;
14272;SDS011;7220;49.450;11.052;2023-02-27T06:44:46;4.63;;;2.97;;
14272;SDS011;7220;49.450;11.052;2023-02-27T06:48:46;5.73;;;2.93;;
14272;SDS011;7220;49.450;11.052;2023-02-27T06:52:46;4.77;;;3.30;;
14272;SDS011;7220;49.450;11.052;2023-02-27T06:56:47;3.67;;;3.37;;
14272;SDS011;7220;49.450;11.052;2023-02-27T07:00:47;4.43;;;3.10;;
14272;SDS011;7220;49.450;11.052;2023-02-27T07:04:47;8.73;;;3.27;;
14272;SDS011;7220;49.450;11.052;2023-02-27T07:08:48;3.87;;;3.47;;
14272;SDS011;7220;49.450;11.052;2023-02-27T07:12:48;5.30;;;3.30;;
14272;SDS011;7220;49.450;11.052;2023-02-27T07:16:49;7.73;;;3.60;;
14272;SDS011;7220;49.450;11.052;2023-02-27T07:20:52;5.37;;;3.43;;
14272;SDS011;7220;49.450;11.052;2023-02-27T07:24:54;4.53;;;3.67;;
14272;SDS011;7220;49.450;11.052;2023-02-27T07:28:54;6.87;;;4.30;;
14272;SDS011;7220;49.450;11.052;2023-02-27T07:32:54;4.13;;;3.10;;
14272;SDS011;7220;49.450;11.052;2023-02-27T07:36:55;6.53;;;3.87;;
14272;SDS011;7220;49.450;11.052;2023-02-27T07:40:55;4.97;;;3.30;;
14272;SDS011;7220;49.450;11.052;2023-02-27T07:44:57;4.23;;;3.53;;
14272;SDS011;7220;49.450;11.052;2023-02-27T07:48:57;5.13;;;3.50;;
14272;SDS011;7220;49.450;11.052;2023-02-27T07:52:58;5.13;;;3.83;;
14272;SDS011;7220;49.450;11.052;2023-02-27T07:56:58;5.33;;;3.60;;
14272;SDS011;7220;49.450;11.052;2023-02-27T08:00:58;4.03;;;3.33;;
14272;SDS011;7220;49.450;11.052;2023-02-27T08:04:59;7.03;;;3.13;;
14272;SDS011;7220;49.450;11.052;2023-02-27T08:08:59;6.03;;;3.20;;
14272;SDS011;7220;49.450;11.052;2023-02-27T08:13:00;4.20;;;3.13;;
14272;SDS011;7220;49.450;11.052;2023-02-27T08:17:01;3.40;;;3.00;;
14272;SDS011;7220;49.450;11.052;2023-02-27T08:21:01;6.27;;;2.60;;
14272;SDS011;7220;49.450;11.052;2023-02-27T08:25:04;5.53;;;2.90;;
14272;SDS011;7220;49.450;11.052;2023-02-27T08:29:06;7.20;;;3.40;;
14272;SDS011;7220;49.450;11.052;2023-02-27T08:33:06;4.93;;;2.90;;
14272;SDS011;7220;49.450;11.052;2023-02-27T08:37:07;5.07;;;3.07;;
14272;SDS011;7220;49.450;11.052;2023-02-27T08:41:07;3.93;;;2.63;;
14272;SDS011;7220;49.450;11.052;2023-02-27T08:45:08;6.73;;;2.67;;
14272;SDS011;7220;49.450;11.052;2023-02-27T08:49:09;6.10;;;2.93;;
14272;SDS011;7220;49.450;11.052;2023-02-27T08:53:18;4.80;;;2.40;;
14272;SDS011;7220;49.450;11.052;2023-02-27T08:57:25;2.80;;;2.50;;
14272;SDS011;7220;49.450;11.052;2023-02-27T09:01:25;3.60;;;2.77;;
14272;SDS011;7220;49.450;11.052;2023-02-27T09:05:30;4.93;;;2.37;;
14272;SDS011;7220;49.450;11.052;2023-02-27T09:09:34;3.80;;;2.47;;
14272;SDS011;7220;49.450;11.052;2023-02-27T09:13:34;4.10;;;2.37;;
14272;SDS011;7220;49.450;11.052;2023-02-27T09:17:34;3.55;;;2.38;;
14272;SDS011;7220;49.450;11.052;2023-02-27T09:21:34;2.47;;;2.28;;
14272;SDS011;7220;49.450;11.052;2023-02-27T09:25:36;5.22;;;2.58;;
14272;SDS011;7220;49.450;11.052;2023-02-27T09:29:36;3.83;;;2.65;;
14272;SDS011;7220;49.450;11.052;2023-02-27T09:33:36;2.83;;;2.30;;
14272;SDS011;7220;49.450;11.052;2023-02-27T09:37:37;4.57;;;2.90;;
14272;SDS011;7220;49.450;11.052;2023-02-27T09:46:00;5.50;;;2.50;;
14272;SDS011;7220;49.450;11.052;2023-02-27T09:54:04;7.93;;;2.63;;
14272;SDS011;7220;49.450;11.052;2023-02-27T10:06:58;4.97;;;2.10;;
14272;SDS011;7220;49.450;11.052;2023-02-27T10:11:08;3.35;;;1.73;;
14272;SDS011;7220;49.450;11.052;2023-02-27T10:19:50;4.78;;;2.25;;
14272;SDS011;7220;49.450;11.052;2023-02-27T10:23:54;4.38;;;2.20;;
14272;SDS011;7220;49.450;11.052;2023-02-27T10:28:08;3.70;;;2.58;;
14272;SDS011;7220;49.450;11.052;2023-02-27T10:32:25;4.10;;;2.05;;
14272;SDS011;7220;49.450;11.052;2023-02-27T10:36:30;3.22;;;2.20;;
14272;SDS011;7220;49.450;11.052;2023-02-27T10:40:30;3.15;;;2.10;;
14272;SDS011;7220;49.450;11.052;2023-02-27T10:44:35;3.55;;;2.20;;
14272;SDS011;7220;49.450;11.052;2023-02-27T10:48:35;3.80;;;1.77;;
14272;SDS011;7220;49.450;11.052;2023-02-27T10:52:47;2.63;;;1.90;;
14272;SDS011;7220;49.450;11.052;2023-02-27T10:56:54;2.83;;;1.75;;
14272;SDS011;7220;49.450;11.052;2023-02-27T11:00:58;3.08;;;1.98;;
14272;SDS011;7220;49.450;11.052;2023-02-27T11:05:00;2.38;;;1.77;;
14272;SDS011;7220;49.450;11.052;2023-02-27T11:09:11;3.38;;;2.13;;
14272;SDS011;7220;49.450;11.052;2023-02-27T11:13:21;6.25;;;2.10;;
14272;SDS011;7220;49.450;11.052;2023-02-27T11:17:31;2.88;;;1.63;;
14272;SDS011;7220;49.450;11.052;2023-02-27T11:21:33;3.63;;;2.00;;
14272;SDS011;7220;49.450;11.052;2023-02-27T11:25:33;3.40;;;2.20;;
14272;SDS011;7220;49.450;11.052;2023-02-27T11:29:34;2.00;;;1.80;;
14272;SDS011;7220;49.450;11.052;2023-02-27T11:33:37;2.67;;;2.30;;
14272;SDS011;7220;49.450;11.052;2023-02-27T11:37:39;2.80;;;2.13;;
14272;SDS011;7220;49.450;11.052;2023-02-27T11:41:40;1.73;;;1.63;;
14272;SDS011;7220;49.450;11.052;2023-02-27T11:45:48;2.90;;;2.20;;
14272;SDS011;7220;49.450;11.052;2023-02-27T11:54:35;2.28;;;2.08;;
14272;SDS011;7220;49.450;11.052;2023-02-27T11:58:41;2.92;;;2.15;;
14272;SDS011;7220;49.450;11.052;2023-02-27T12:03:12;2.85;;;1.90;;
14272;SDS011;7220;49.450;11.052;2023-02-27T12:07:37;3.25;;;2.20;;
14272;SDS011;7220;49.450;11.052;2023-02-27T12:11:43;3.20;;;2.00;;
14272;SDS011;7220;49.450;11.052;2023-02-27T12:15:47;4.07;;;2.00;;
14272;SDS011;7220;49.450;11.052;2023-02-27T12:19:57;3.58;;;2.10;;
14272;SDS011;7220;49.450;11.052;2023-02-27T12:24:08;4.18;;;2.85;;
14272;SDS011;7220;49.450;11.052;2023-02-27T12:32:26;4.63;;;3.60;;
14272;SDS011;7220;49.450;11.052;2023-02-27T12:36:32;3.50;;;2.60;;
14272;SDS011;7220;49.450;11.052;2023-02-27T12:40:37;2.30;;;2.10;;
14272;SDS011;7220;49.450;11.052;2023-02-27T12:53:28;3.63;;;2.40;;
14272;SDS011;7220;49.450;11.052;2023-02-27T13:02:08;3.55;;;3.05;;
14272;SDS011;7220;49.450;11.052;2023-02-27T13:10:47;3.58;;;2.28;;
14272;SDS011;7220;49.450;11.052;2023-02-27T13:19:01;3.80;;;2.90;;
14272;SDS011;7220;49.450;11.052;2023-02-27T13:23:16;3.28;;;2.65;;
14272;SDS011;7220;49.450;11.052;2023-02-27T13:27:23;3.83;;;3.00;;
14272;SDS011;7220;49.450;11.052;2023-02-27T13:39:55;3.08;;;2.78;;
14272;SDS011;7220;49.450;11.052;2023-02-27T13:43:56;4.68;;;3.40;;
14272;SDS011;7220;49.450;11.052;2023-02-27T13:47:58;3.22;;;2.88;;
14272;SDS011;7220;49.450;11.052;2023-02-27T13:51:59;4.33;;;3.77;;
14272;SDS011;7220;49.450;11.052;2023-02-27T13:56:22;3.83;;;3.20;;
14272;SDS011;7220;49.450;11.052;2023-02-27T14:00:24;4.35;;;3.47;;
14272;SDS011;7220;49.450;11.052;2023-02-27T14:04:27;3.53;;;2.75;;
14272;SDS011;7220;49.450;11.052;2023-02-27T14:08:32;3.97;;;2.85;;
14272;SDS011;7220;49.450;11.052;2023-02-27T14:12:45;4.03;;;3.28;;
14272;SDS011;7220;49.450;11.052;2023-02-27T14:20:48;2.58;;;1.70;;
14272;SDS011;7220;49.450;11.052;2023-02-27T14:24:57;1.85;;;1.63;;
14272;SDS011;7220;49.450;11.052;2023-02-27T14:29:04;2.10;;;1.88;;
14272;SDS011;7220;49.450;11.052;2023-02-27T14:33:18;2.92;;;2.10;;
14272;SDS011;7220;49.450;11.052;2023-02-27T14:37:25;3.05;;;1.70;;
14272;SDS011;7220;49.450;11.052;2023-02-27T14:41:47;3.88;;;2.53;;
14272;SDS011;7220;49.450;11.052;2023-02-27T14:46:23;4.78;;;2.70;;
14272;SDS011;7220;49.450;11.052;2023-02-27T14:50:31;2.42;;;1.90;;
14272;SDS011;7220;49.450;11.052;2023-02-27T14:54:36;2.35;;;1.73;;
14272;SDS011;7220;49.450;11.052;2023-02-27T14:58:36;2.42;;;1.80;;
14272;SDS011;7220;49.450;11.052;2023-02-27T15:02:37;2.45;;;1.90;;
14272;SDS011;7220;49.450;11.052;2023-02-27T15:06:41;2.70;;;2.10;;
14272;SDS011;7220;49.450;11.052;2023-02-27T15:10:44;1.83;;;1.73;;
14272;SDS011;7220;49.450;11.052;2023-02-27T15:14:46;2.05;;;1.88;;
14272;SDS011;7220;49.450;11.052;2023-02-27T15:18:51;2.28;;;2.03;;
14272;SDS011;7220;49.450;11.052;2023-02-27T15:22:56;2.95;;;2.22;;
14272;SDS011;7220;49.450;11.052;2023-02-27T15:27:02;2.45;;;2.20;;
14272;SDS011;7220;49.450;11.052;2023-02-27T15:31:04;2.90;;;2.17;;
14272;SDS011;7220;49.450;11.052;2023-02-27T15:39:19;5.47;;;2.17;;
14272;SDS011;7220;49.450;11.052;2023-02-27T15:43:22;2.53;;;2.20;;
14272;SDS011;7220;49.450;11.052;2023-02-27T15:47:28;3.42;;;2.15;;
14272;SDS011;7220;49.450;11.052;2023-02-27T15:51:30;2.80;;;2.10;;
14272;SDS011;7220;49.450;11.052;2023-02-27T15:55:32;1.98;;;1.80;;
14272;SDS011;7220;49.450;11.052;2023-02-27T15:59:36;1.60;;;1.50;;
14272;SDS011;7220;49.450;11.052;2023-02-27T16:03:41;2.15;;;1.92;;
14272;SDS011;7220;49.450;11.052;2023-02-27T16:07:44;1.90;;;1.73;;
14272;SDS011;7220;49.450;11.052;2023-02-27T16:11:46;2.10;;;1.90;;
14272;SDS011;7220;49.450;11.052;2023-02-27T16:16:00;2.85;;;1.88;;
14272;SDS011;7220;49.450;11.052;2023-02-27T16:20:25;4.47;;;2.33;;
14272;SDS011;7220;49.450;11.052;2023-02-27T16:24:35;2.90;;;2.20;;
14272;SDS011;7220;49.450;11.052;2023-02-27T16:28:37;3.97;;;2.53;;
14272;SDS011;7220;49.450;11.052;2023-02-27T16:32:44;2.65;;;2.40;;
14272;SDS011;7220;49.450;11.052;2023-02-27T16:36:55;2.05;;;1.95;;
14272;SDS011;7220;49.450;11.052;2023-02-27T16:40:57;2.88;;;2.60;;
14272;SDS011;7220;49.450;11.052;2023-02-27T16:44:57;3.47;;;2.92;;
14272;SDS011;7220;49.450;11.052;2023-02-27T16:48:58;2.47;;;2.10;;
14272;SDS011;7220;49.450;11.052;2023-02-27T16:52:58;6.32;;;2.50;;
14272;SDS011;7220;49.450;11.052;2023-02-27T16:56:59;3.42;;;2.53;;
14272;SDS011;7220;49.450;11.052;2023-02-27T17:00:59;2.72;;;2.50;;
14272;SDS011;7220;49.450;11.052;2023-02-27T17:04:59;5.97;;;3.95;;
14272;SDS011;7220;49.450;11.052;2023-02-27T17:09:01;5.13;;;3.42;;
14272;SDS011;7220;49.450;11.052;2023-02-27T17:13:01;5.72;;;3.40;;
14272;SDS011;7220;49.450;11.052;2023-02-27T17:17:01;4.25;;;2.70;;
14272;SDS011;7220;49.450;11.052;2023-02-27T17:21:02;3.17;;;2.55;;
14272;SDS011;7220;49.450;11.052;2023-02-27T17:25:03;4.55;;;2.92;;
14272;SDS011;7220;49.450;11.052;2023-02-27T17:29:03;3.50;;;2.95;;
14272;SDS011;7220;49.450;11.052;2023-02-27T17:33:04;4.63;;;2.95;;
14272;SDS011;7220;49.450;11.052;2023-02-27T17:37:04;4.30;;;3.10;;
14272;SDS011;7220;49.450;11.052;2023-02-27T17:41:05;6.65;;;4.25;;
14272;SDS011;7220;49.450;11.052;2023-02-27T17:45:07;7.05;;;5.90;;
14272;SDS011;7220;49.450;11.052;2023-02-27T17:49:08;6.93;;;5.43;;
14272;SDS011;7220;49.450;11.052;2023-02-27T17:53:08;5.03;;;4.47;;
14272;SDS011;7220;49.450;11.052;2023-02-27T17:57:10;6.00;;;4.50;;
14272;SDS011;7220;49.450;11.052;2023-02-27T18:01:13;6.05;;;3.75;;
14272;SDS011;7220;49.450;11.052;2023-02-27T18:05:20;3.63;;;3.33;;
14272;SDS011;7220;49.450;11.052;2023-02-27T18:09:20;6.10;;;3.22;;
14272;SDS011;7220;49.450;11.052;2023-02-27T18:13:20;3.03;;;2.78;;
14272;SDS011;7220;49.450;11.052;2023-02-27T18:17:21;5.22;;;3.80;;
14272;SDS011;7220;49.450;11.052;2023-02-27T18:21:21;7.53;;;5.20;;
14272;SDS011;7220;49.450;11.052;2023-02-27T18:25:23;6.63;;;4.97;;
14272;SDS011;7220;49.450;11.052;2023-02-27T18:29:23;7.70;;;5.78;;
14272;SDS011;7220;49.450;11.052;2023-02-27T18:33:24;10.25;;;6.57;;
14272;SDS011;7220;49.450;11.052;2023-02-27T18:37:24;6.15;;;4.53;;
14272;SDS011;7220;49.450;11.052;2023-02-27T18:41:25;6.65;;;4.40;;
14272;SDS011;7220;49.450;11.052;2023-02-27T18:45:25;5.38;;;4.30;;
14272;SDS011;7220;49.450;11.052;2023-02-27T18:49:28;5.43;;;4.05;;
14272;SDS011;7220;49.450;11.052;2023-02-27T18:53:29;5.53;;;4.60;;
14272;SDS011;7220;49.450;11.052;2023-02-27T18:57:30;6.03;;;3.67;;
14272;SDS011;7220;49.450;11.052;2023-02-27T19:01:31;6.65;;;3.85;;
14272;SDS011;7220;49.450;11.052;2023-02-27T19:05:37;3.47;;;3.17;;
14272;SDS011;7220;49.450;11.052;2023-02-27T19:09:39;5.07;;;3.22;;
14272;SDS011;7220;49.450;11.052;2023-02-27T19:13:40;3.85;;;3.45;;
14272;SDS011;7220;49.450;11.052;2023-02-27T19:17:41;5.27;;;3.53;;
14272;SDS011;7220;49.450;11.052;2023-02-27T19:21:42;3.92;;;3.10;;
14272;SDS011;7220;49.450;11.052;2023-02-27T19:25:42;3.90;;;2.93;;
14272;SDS011;7220;49.450;11.052;2023-02-27T19:29:44;5.90;;;3.23;;
14272;SDS011;7220;49.450;11.052;2023-02-27T19:33:45;4.03;;;3.05;;
14272;SDS011;7220;49.450;11.052;2023-02-27T19:37:45;3.67;;;3.33;;
14272;SDS011;7220;49.450;11.052;2023-02-27T19:41:47;3.33;;;2.88;;
14272;SDS011;7220;49.450;11.052;2023-02-27T19:45:47;4.37;;;3.20;;
14272;SDS011;7220;49.450;11.052;2023-02-27T19:49:47;3.70;;;3.20;;
14272;SDS011;7220;49.450;11.052;2023-02-27T19:53:48;3.95;;;3.45;;
14272;SDS011;7220;49.450;11.052;2023-02-27T19:57:48;5.40;;;3.45;;
14272;SDS011;7220;49.450;11.052;2023-02-27T20:01:48;4.90;;;3.70;;
14272;SDS011;7220;49.450;11.052;2023-02-27T20:05:49;4.07;;;3.00;;
14272;SDS011;7220;49.450;11.052;2023-02-27T20:09:50;4.67;;;3.00;;
14272;SDS011;7220;49.450;11.052;2023-02-27T20:13:50;6.30;;;3.17;;
14272;SDS011;7220;49.450;11.052;2023-02-27T20:17:51;3.30;;;3.00;;
14272;SDS011;7220;49.450;11.052;2023-02-27T20:21:51;4.77;;;3.07;;
14272;SDS011;7220;49.450;11.052;2023-02-27T20:25:53;6.33;;;3.00;;
14272;SDS011;7220;49.450;11.052;2023-02-27T20:29:54;4.30;;;3.00;;
14272;SDS011;7220;49.450;11.052;2023-02-27T20:33:55;3.40;;;2.83;;
14272;SDS011;7220;49.450;11.052;2023-02-27T20:37:56;3.53;;;2.90;;
14272;SDS011;7220;49.450;11.052;2023-02-27T20:41:56;3.83;;;2.43;;
14272;SDS011;7220;49.450;11.052;2023-02-27T20:45:56;4.38;;;2.80;;
14272;SDS011;7220;49.450;11.052;2023-02-27T20:50:01;3.60;;;2.63;;
14272;SDS011;7220;49.450;11.052;2023-02-27T20:54:03;3.72;;;2.55;;
14272;SDS011;7220;49.450;11.052;2023-02-27T20:58:06;5.00;;;2.60;;
14272;SDS011;7220;49.450;11.052;2023-02-27T21:02:08;3.53;;;2.53;;
14272;SDS011;7220;49.450;11.052;2023-02-27T21:06:10;3.87;;;2.40;;
14272;SDS011;7220;49.450;11.052;2023-02-27T21:10:13;3.17;;;2.40;;
14272;SDS011;7220;49.450;11.052;2023-02-27T21:14:13;3.87;;;2.60;;
14272;SDS011;7220;49.450;11.052;2023-02-27T21:18:13;4.57;;;2.67;;
14272;SDS011;7220;49.450;11.052;2023-02-27T21:22:14;2.33;;;2.13;;
14272;SDS011;7220;49.450;11.052;2023-02-27T21:26:17;4.20;;;2.90;;
14272;SDS011;7220;49.450;11.052;2023-02-27T21:30:19;3.20;;;2.90;;
14272;SDS011;7220;49.450;11.052;2023-02-27T21:34:23;4.43;;;2.53;;
14272;SDS011;7220;49.450;11.052;2023-02-27T21:38:25;3.67;;;2.73;;
14272;SDS011;7220;49.450;11.052;2023-02-27T21:42:25;4.30;;;2.70;;
14272;SDS011;7220;49.450;11.052;2023-02-27T21:46:27;2.97;;;2.50;;
14272;SDS011;7220;49.450;11.052;2023-02-27T21:50:28;3.57;;;3.00;;
14272;SDS011;7220;49.450;11.052;2023-02-27T21:54:28;3.93;;;2.80;;
14272;SDS011;7220;49.450;11.052;2023-02-27T21:58:28;4.07;;;2.83;;
14272;SDS011;7220;49.450;11.052;2023-02-27T22:02:28;3.80;;;2.83;;
14272;SDS011;7220;49.450;11.052;2023-02-27T22:06:30;4.17;;;2.90;;
14272;SDS011;7220;49.450;11.052;2023-02-27T22:10:33;6.03;;;2.87;;
14272;SDS011;7220;49.450;11.052;2023-02-27T22:14:41;2.70;;;2.50;;
14272;SDS011;7220;49.450;11.052;2023-02-27T22:18:42;3.10;;;2.80;;
14272;SDS011;7220;49.450;11.052;2023-02-27T22:22:42;4.07;;;3.10;;
14272;SDS011;7220;49.450;11.052;2023-02-27T22:26:42;3.10;;;2.80;;
14272;SDS011;7220;49.450;11.052;2023-02-27T22:30:44;5.97;;;4.70;;
14272;SDS011;7220;49.450;11.052;2023-02-27T22:34:45;5.67;;;4.33;;
14272;SDS011;7220;49.450;11.052;2023-02-27T22:38:46;4.57;;;3.83;;
14272;SDS011;7220;49.450;11.052;2023-02-27T22:42:47;5.13;;;3.20;;
14272;SDS011;7220;49.450;11.052;2023-02-27T22:46:47;3.90;;;3.33;;
14272;SDS011;7220;49.450;11.052;2023-02-27T22:50:55;3.07;;;2.53;;
14272;SDS011;7220;49.450;11.052;2023-02-27T22:55:02;3.63;;;3.23;;
14272;SDS011;7220;49.450;11.052;2023-02-27T22:59:02;4.30;;;3.40;;
14272;SDS011;7220;49.450;11.052;2023-02-27T23:03:03;4.07;;;3.20;;
14272;SDS011;7220;49.450;11.052;2023-02-27T23:07:04;4.67;;;3.17;;
14272;SDS011;7220;49.450;11.052;2023-02-27T23:11:04;7.93;;;3.90;;
14272;SDS011;7220;49.450;11.052;2023-02-27T23:15:05;6.57;;;3.50;;
14272;SDS011;7220;49.450;11.052;2023-02-27T23:19:05;4.10;;;3.10;;
14272;SDS011;7220;49.450;11.052;2023-02-27T23:23:06;4.90;;;3.23;;
14272;SDS011;7220;49.450;11.052;2023-02-27T23:27:07;3.83;;;3.17;;
14272;SDS011;7220;49.450;11.052;2023-02-27T23:31:10;4.07;;;3.40;;
14272;SDS011;7220;49.450;11.052;2023-02-27T23:35:11;4.13;;;3.70;;
14272;SDS011;7220;49.450;11.052;2023-02-27T23:39:12;3.87;;;3.20;;
14272;SDS011;7220;49.450;11.052;2023-02-27T23:43:12;4.90;;;4.10;;
14272;SDS011;7220;49.450;11.052;2023-02-27T23:47:19;4.80;;;4.37;;
14272;SDS011;7220;49.450;11.052;2023-02-27T23:51:37;3.93;;;3.50;;
14272;SDS011;7220;49.450;11.052;2023-02-27T23:55:38;4.20;;;3.67;;
14272;SDS011;7220;49.450;11.052;2023-02-27T23:59:39;4.50;;;3.50;;
